Terminal Aerodrome Forecast
Issued by NWS

Home | Current Version | Previous Version | Text Only | Print | Product List | Glossary On
Versions: 1 2 3 4 5 6 7 8 9 10 11 12 13 14 15 16 17 18 19 20 21 22 23 24 25
000
FTUS43 KMKX 270723 AAA
TAFUES
TAF AMD
KUES 270723Z 2707/2806 VRB04KT 3SM RA BR BKN005
     FM270900 33006KT 2SM RA BR OVC004
     FM271300 28010KT 4SM -RA BR OVC006
     FM271600 26013G22KT P6SM SHRA OVC010
     FM271800 26013G21KT P6SM OVC015
     FM272000 26013G21KT P6SM BKN020
     FM280200 25006KT P6SM BKN035
     FM280300 25005KT P6SM SCT035=

USA.gov is the U.S. government's official web portal to all federal, state and local government web resources and services.